createdAt,value
2018-05-31T00:00:10.925Z,101472.09
2018-05-31T00:03:14.262Z,101475.61
2018-05-31T00:06:22.553Z,101463.77
2018-05-31T00:09:25.901Z,101472.99
2018-05-31T00:12:29.238Z,101467.72
2018-05-31T00:15:33.291Z,101456.77
2018-05-31T00:18:37.479Z,101452.83
2018-05-31T00:21:40.847Z,101453.70
2018-05-31T00:24:44.204Z,101451.52
2018-05-31T00:27:47.547Z,101456.34
2018-05-31T00:30:50.894Z,101462.52
2018-05-31T00:33:54.959Z,101457.69
2018-05-31T00:36:58.308Z,101457.69
2018-05-31T00:40:01.665Z,101452.39
2018-05-31T00:43:05.057Z,101453.73
2018-05-31T00:46:08.409Z,101460.33
2018-05-31T00:49:11.771Z,101458.56
2018-05-31T00:52:16.237Z,101464.24
2018-05-31T00:55:37.333Z,101462.50
2018-05-31T00:58:40.679Z,101462.08
2018-05-31T01:01:44.829Z,101464.28
2018-05-31T01:04:48.975Z,101462.12
2018-05-31T01:07:52.320Z,101461.69
2018-05-31T01:10:56.591Z,101459.52
2018-05-31T01:13:59.934Z,101457.75
2018-05-31T01:17:03.338Z,101457.77
2018-05-31T01:20:06.735Z,101455.14
2018-05-31T01:23:10.072Z,101453.39
2018-05-31T01:26:13.408Z,101452.50
2018-05-31T01:29:16.743Z,101459.97
2018-05-31T01:32:20.923Z,101462.60
2018-05-31T01:35:24.274Z,101461.31
2018-05-31T01:38:33.262Z,101469.63
2018-05-31T01:41:36.605Z,101444.20
2018-05-31T01:44:39.953Z,101448.15
2018-05-31T01:47:43.363Z,101454.29
2018-05-31T01:50:47.474Z,101441.13
2018-05-31T01:53:52.386Z,101447.28
2018-05-31T01:56:55.699Z,101438.95
2018-05-31T01:59:59.924Z,101430.17
2018-05-31T02:03:04.021Z,101422.30
2018-05-31T02:06:07.375Z,101424.94
2018-05-31T02:09:10.856Z,101420.98
2018-05-31T02:12:14.192Z,101420.55
2018-05-31T02:15:18.304Z,101423.64
2018-05-31T02:18:21.611Z,101424.08
2018-05-31T02:21:24.985Z,101413.13
2018-05-31T02:24:28.371Z,101417.05
2018-05-31T02:27:31.729Z,101412.25
2018-05-31T02:30:35.938Z,101413.99
2018-05-31T02:33:39.283Z,101423.20
2018-05-31T02:36:42.620Z,101409.63
2018-05-31T02:39:46.119Z,101402.62
2018-05-31T02:42:49.467Z,101406.55
2018-05-31T02:45:52.903Z,101412.70
2018-05-31T02:48:56.240Z,101419.26
2018-05-31T02:52:00.314Z,101420.14
2018-05-31T02:55:03.763Z,101417.08
2018-05-31T02:58:07.137Z,101421.88
2018-05-31T03:01:11.246Z,101418.39
2018-05-31T03:04:14.710Z,101418.80
2018-05-31T03:07:18.138Z,101423.23
2018-05-31T03:10:21.718Z,101422.77
2018-05-31T03:13:25.040Z,101420.15
2018-05-31T03:16:28.424Z,101421.43
2018-05-31T03:19:31.828Z,101434.59
2018-05-31T03:22:35.133Z,101439.86
2018-05-31T03:25:39.263Z,101430.19
2018-05-31T03:28:43.446Z,101443.77
2018-05-31T03:31:46.801Z,101462.60
2018-05-31T03:34:50.808Z,101437.59
2018-05-31T03:37:54.142Z,101435.83
2018-05-31T03:40:57.449Z,101438.42
2018-05-31T03:44:00.802Z,101448.48
2018-05-31T03:47:04.150Z,101439.68
2018-05-31T03:50:07.501Z,101431.34
2018-05-31T03:53:10.944Z,101434.78
2018-05-31T03:56:14.344Z,101441.83
2018-05-31T03:59:17.665Z,101440.94
2018-05-31T04:02:21.027Z,101440.53
2018-05-31T04:05:24.375Z,101454.19
2018-05-31T04:08:27.695Z,101449.81
2018-05-31T04:11:31.046Z,101449.86
2018-05-31T04:14:35.141Z,101448.09
2018-05-31T04:17:38.483Z,101448.98
2018-05-31T04:20:41.837Z,101451.16
2018-05-31T04:23:45.179Z,101442.84
2018-05-31T04:26:48.517Z,101446.79
2018-05-31T04:29:51.849Z,101436.27
2018-05-31T04:32:55.184Z,101443.28
2018-05-31T04:35:58.503Z,101445.45
2018-05-31T04:39:01.852Z,101440.63
2018-05-31T04:42:05.188Z,101439.31
2018-05-31T04:45:08.518Z,101442.80
2018-05-31T04:48:12.649Z,101440.16
2018-05-31T04:51:15.989Z,101444.95
2018-05-31T04:54:19.330Z,101435.70
2018-05-31T04:57:23.505Z,101436.13
2018-05-31T05:00:26.889Z,101430.43
2018-05-31T05:03:30.218Z,101430.41
2018-05-31T05:06:33.576Z,101419.45
2018-05-31T05:09:36.893Z,101430.00
2018-05-31T05:12:40.254Z,101433.03
2018-05-31T05:15:43.599Z,101436.99
2018-05-31T05:18:46.989Z,101439.64
2018-05-31T05:21:51.689Z,101440.50
2018-05-31T05:24:55.012Z,101443.56
2018-05-31T05:27:58.363Z,101443.58
2018-05-31T05:31:01.732Z,101446.60
2018-05-31T05:34:05.847Z,101451.81
2018-05-31T05:37:09.948Z,101458.84
2018-05-31T05:40:13.273Z,101454.00
2018-05-31T05:43:16.598Z,101460.97
2018-05-31T05:46:19.959Z,101463.16
2018-05-31T05:49:23.290Z,101467.53
2018-05-31T05:52:26.647Z,101476.72
2018-05-31T05:55:31.709Z,101477.50
2018-05-31T05:58:36.379Z,101478.37
2018-05-31T06:01:39.777Z,101475.26
2018-05-31T06:04:43.194Z,101473.47
2018-05-31T06:07:47.311Z,101476.52
2018-05-31T06:10:51.472Z,101483.11
2018-05-31T06:13:54.832Z,101482.68
2018-05-31T06:16:58.964Z,101478.69
2018-05-31T06:20:02.371Z,101483.00
2018-05-31T06:23:05.693Z,101488.83
2018-05-31T06:26:09.115Z,101490.51
2018-05-31T06:29:12.466Z,101489.56
2018-05-31T06:32:15.828Z,101492.53
2018-05-31T06:35:19.948Z,101499.92
2018-05-31T06:38:24.907Z,101495.48
2018-05-31T06:41:28.288Z,101493.70
2018-05-31T06:44:32.365Z,101495.05
2018-05-31T06:47:35.715Z,101495.50
2018-05-31T06:50:39.056Z,101492.80
2018-05-31T06:53:42.399Z,101492.70
2018-05-31T06:56:45.787Z,101493.44
2018-05-31T06:59:49.898Z,101499.01
2018-05-31T07:02:54.074Z,101496.73
2018-05-31T07:05:57.475Z,101502.39
2018-05-31T07:09:00.808Z,101504.04
2018-05-31T07:12:04.914Z,101505.88
2018-05-31T07:15:09.009Z,101524.28
2018-05-31T07:18:13.141Z,101520.75
2018-05-31T07:21:16.640Z,101530.92
2018-05-31T07:24:19.981Z,101531.92
2018-05-31T07:27:23.303Z,101523.97
2018-05-31T07:30:26.623Z,101529.66
2018-05-31T07:33:30.824Z,101523.55
2018-05-31T07:36:34.161Z,101528.41
2018-05-31T07:39:37.523Z,101527.39
2018-05-31T07:42:40.870Z,101533.07
2018-05-31T07:45:44.142Z,101526.03
2018-05-31T07:48:47.513Z,101531.23
2018-05-31T07:51:50.831Z,101534.33
2018-05-31T07:54:54.938Z,101536.18
2018-05-31T07:57:59.315Z,101535.77
2018-05-31T08:01:02.671Z,101538.00
2018-05-31T08:04:06.759Z,101542.05
2018-05-31T08:07:10.107Z,101543.61
2018-05-31T08:10:13.434Z,101539.70
2018-05-31T08:13:16.791Z,101544.50
2018-05-31T08:16:20.101Z,101554.11
2018-05-31T08:19:23.488Z,101552.77
2018-05-31T08:22:26.820Z,101551.01
2018-05-31T08:25:30.193Z,101550.19
2018-05-31T08:28:33.478Z,101559.39
2018-05-31T08:31:37.300Z,101557.45
2018-05-31T08:34:41.350Z,101558.82
2018-05-31T08:37:44.711Z,101563.65
2018-05-31T08:40:48.042Z,101566.77
2018-05-31T08:43:51.395Z,101561.67
2018-05-31T08:46:54.729Z,101566.13
2018-05-31T08:49:58.086Z,101566.81
2018-05-31T08:53:01.418Z,101567.88
2018-05-31T08:56:05.150Z,101559.97
2018-05-31T08:59:08.509Z,101566.78
2018-05-31T09:02:11.878Z,101561.50
2018-05-31T09:05:15.274Z,101569.45
2018-05-31T09:08:18.637Z,101575.28
2018-05-31T09:11:22.751Z,101569.61
2018-05-31T09:14:27.057Z,101568.70
2018-05-31T09:17:30.354Z,101574.86
2018-05-31T09:20:34.518Z,101560.05
2018-05-31T09:23:37.850Z,101564.58
2018-05-31T09:26:41.196Z,101569.31
2018-05-31T09:29:44.540Z,101570.09
2018-05-31T09:32:47.933Z,101569.53
2018-05-31T09:35:51.288Z,101566.94
2018-05-31T09:38:54.618Z,101565.41
2018-05-31T09:41:57.954Z,101563.34
2018-05-31T09:45:02.136Z,101556.59
2018-05-31T09:48:05.436Z,101559.64
2018-05-31T09:51:08.796Z,101569.13
2018-05-31T09:54:12.118Z,101578.25
2018-05-31T09:57:15.475Z,101568.91
2018-05-31T10:00:19.540Z,101570.83
2018-05-31T10:03:22.889Z,101570.66
2018-05-31T10:06:26.238Z,101571.82
2018-05-31T10:09:29.633Z,101565.72
2018-05-31T10:12:32.955Z,101563.66
2018-05-31T10:15:37.109Z,101564.12
2018-05-31T10:18:40.429Z,101557.89
2018-05-31T10:21:43.790Z,101560.10
2018-05-31T10:24:47.117Z,101562.53
2018-05-31T10:27:50.460Z,101555.61
2018-05-31T10:30:54.549Z,101561.42
2018-05-31T10:33:57.925Z,101558.41
2018-05-31T10:37:01.256Z,101560.70
2018-05-31T10:40:04.580Z,101560.50
2018-05-31T10:43:07.913Z,101571.13
2018-05-31T10:46:11.253Z,101564.14
2018-05-31T10:49:15.342Z,101566.19
2018-05-31T10:52:18.662Z,101569.84
2018-05-31T10:55:22.013Z,101569.47
2018-05-31T10:58:25.362Z,101561.95
2018-05-31T11:01:29.437Z,101560.77
2018-05-31T11:04:32.754Z,101553.60
2018-05-31T11:07:36.857Z,101550.32
2018-05-31T11:10:40.278Z,101552.67
2018-05-31T11:13:44.365Z,101545.30
2018-05-31T11:16:48.481Z,101547.15
2018-05-31T11:19:51.804Z,101541.76
2018-05-31T11:22:55.937Z,101547.25
2018-05-31T11:25:59.257Z,101548.67
2018-05-31T11:29:02.607Z,101541.02
2018-05-31T11:32:05.933Z,101540.12
2018-05-31T11:35:09.276Z,101544.42
2018-05-31T11:38:12.624Z,101543.67
2018-05-31T11:41:16.050Z,101541.27
2018-05-31T11:44:19.381Z,101542.22
2018-05-31T11:47:22.776Z,101549.23
2018-05-31T11:50:26.156Z,101546.38
2018-05-31T11:53:29.543Z,101545.84
2018-05-31T11:56:32.875Z,101545.03
2018-05-31T11:59:36.214Z,101551.45
2018-05-31T12:02:39.553Z,101546.22
2018-05-31T12:05:42.965Z,101546.95
2018-05-31T12:08:46.297Z,101546.47
2018-05-31T12:11:49.653Z,101548.91
2018-05-31T12:14:52.998Z,101550.53
2018-05-31T12:17:56.371Z,101545.66
2018-05-31T12:21:00.462Z,101550.30
2018-05-31T12:24:03.802Z,101541.76
2018-05-31T12:27:07.134Z,101545.28
2018-05-31T12:30:10.486Z,101537.56
2018-05-31T12:33:13.815Z,101541.27
2018-05-31T12:36:17.167Z,101540.66
2018-05-31T12:39:21.274Z,101545.23
2018-05-31T12:42:25.379Z,101543.42
2018-05-31T12:45:28.715Z,101545.03
2018-05-31T12:48:32.071Z,101545.28
2018-05-31T12:51:35.399Z,101544.84
2018-05-31T12:54:38.767Z,101542.04
2018-05-31T12:57:42.869Z,101541.43
2018-05-31T13:00:46.219Z,101542.94
2018-05-31T13:03:49.545Z,101541.15
2018-05-31T13:06:52.885Z,101549.52
2018-05-31T13:09:56.201Z,101543.52
2018-05-31T13:12:59.551Z,101552.08
2018-05-31T13:16:02.858Z,101547.42
2018-05-31T13:19:06.965Z,101548.86
2018-05-31T13:22:11.205Z,101545.59
2018-05-31T13:25:15.331Z,101542.35
2018-05-31T13:28:18.667Z,101546.95
2018-05-31T13:31:22.010Z,101538.88
2018-05-31T13:34:26.100Z,101536.28
2018-05-31T13:37:29.474Z,101544.09
2018-05-31T13:40:32.837Z,101536.72
2018-05-31T13:43:36.224Z,101536.86
2018-05-31T13:46:39.531Z,101533.62
2018-05-31T13:49:42.886Z,101530.98
2018-05-31T13:52:46.277Z,101533.60
2018-05-31T13:55:49.633Z,101539.75
2018-05-31T13:58:52.936Z,101531.95
2018-05-31T14:01:56.307Z,101530.80
2018-05-31T14:04:59.621Z,101534.11
2018-05-31T14:08:02.953Z,101529.35
2018-05-31T14:11:06.290Z,101525.08
2018-05-31T14:14:09.597Z,101524.45
2018-05-31T14:17:12.942Z,101519.09
2018-05-31T14:20:16.293Z,101514.75
2018-05-31T14:23:19.613Z,101522.55
2018-05-31T14:26:22.989Z,101521.39
2018-05-31T14:29:26.310Z,101514.78
2018-05-31T14:32:29.693Z,101516.81
2018-05-31T14:35:33.005Z,101511.80
2018-05-31T14:38:36.341Z,101506.90
2018-05-31T14:41:40.426Z,101505.31
2018-05-31T14:44:43.798Z,101510.61
2018-05-31T14:47:47.127Z,101506.24
2018-05-31T14:50:50.510Z,101503.24
2018-05-31T14:53:53.839Z,101505.92
2018-05-31T14:56:57.214Z,101511.18
2018-05-31T15:00:00.604Z,101511.13
2018-05-31T15:03:04.030Z,101516.73
2018-05-31T15:06:08.124Z,101511.80
2018-05-31T15:09:11.765Z,101510.73
2018-05-31T15:12:15.104Z,101509.40
2018-05-31T15:15:18.452Z,101506.50
2018-05-31T15:18:22.549Z,101510.08
2018-05-31T15:21:25.961Z,101514.78
2018-05-31T15:24:30.098Z,101507.85
2018-05-31T15:27:33.543Z,101515.73
2018-05-31T15:30:36.940Z,101514.47
2018-05-31T15:33:40.345Z,101518.22
2018-05-31T15:36:43.749Z,101508.03
2018-05-31T15:39:47.085Z,101507.06
2018-05-31T15:42:50.388Z,101509.09
2018-05-31T15:45:53.754Z,101508.95
2018-05-31T15:48:57.829Z,101504.07
2018-05-31T15:52:01.182Z,101507.13
2018-05-31T15:55:04.936Z,101506.80
2018-05-31T15:58:08.314Z,101504.47
2018-05-31T16:01:11.655Z,101502.52
2018-05-31T16:04:14.968Z,101506.89
2018-05-31T16:07:18.299Z,101499.58
2018-05-31T16:10:21.645Z,101489.93
2018-05-31T16:13:24.984Z,101491.61
2018-05-31T16:16:28.333Z,101484.95
2018-05-31T16:19:31.727Z,101484.37
2018-05-31T16:22:35.095Z,101487.09
2018-05-31T16:25:38.415Z,101481.81
2018-05-31T16:28:41.724Z,101481.88
2018-05-31T16:31:45.822Z,101486.95
2018-05-31T16:34:49.957Z,101489.69
2018-05-31T16:37:54.053Z,101487.50
2018-05-31T16:40:57.453Z,101481.04
2018-05-31T16:44:00.842Z,101484.18
2018-05-31T16:47:04.233Z,101495.61
2018-05-31T16:50:07.687Z,101499.27
2018-05-31T16:53:11.019Z,101500.30
2018-05-31T16:56:15.056Z,101496.53
2018-05-31T16:59:18.487Z,101496.92
2018-05-31T17:02:21.864Z,101498.51
2018-05-31T17:05:25.990Z,101486.95
2018-05-31T17:08:30.181Z,101488.90
2018-05-31T17:11:33.536Z,101484.98
2018-05-31T17:14:36.913Z,101491.89
2018-05-31T17:17:40.268Z,101490.14
2018-05-31T17:20:43.581Z,101486.73
2018-05-31T17:23:46.925Z,101488.66
2018-05-31T17:26:50.263Z,101485.40
2018-05-31T17:29:53.578Z,101492.14
2018-05-31T17:32:56.924Z,101499.07
2018-05-31T17:36:00.295Z,101508.61
2018-05-31T17:39:03.636Z,101509.88
2018-05-31T17:42:06.992Z,101516.94
2018-05-31T17:45:10.316Z,101513.48
2018-05-31T17:48:14.565Z,101515.25
2018-05-31T17:51:17.904Z,101524.22
2018-05-31T17:54:21.237Z,101526.06
2018-05-31T17:57:25.489Z,101520.34
2018-05-31T18:00:29.600Z,101527.55
2018-05-31T18:03:33.700Z,101524.56
2018-05-31T18:06:37.053Z,101518.58
2018-05-31T18:09:40.413Z,101520.81
2018-05-31T18:12:44.546Z,101525.69
2018-05-31T18:15:47.875Z,101521.41
2018-05-31T18:18:51.191Z,101524.55
2018-05-31T18:21:54.572Z,101525.55
2018-05-31T18:24:57.924Z,101517.14
2018-05-31T18:28:02.001Z,101518.11
2018-05-31T18:31:05.367Z,101514.19
2018-05-31T18:34:08.765Z,101518.60
2018-05-31T18:37:12.114Z,101513.89
2018-05-31T18:40:16.223Z,101515.73
2018-05-31T18:43:19.580Z,101517.11
2018-05-31T18:46:22.912Z,101514.91
2018-05-31T18:49:26.229Z,101520.27
2018-05-31T18:52:29.568Z,101521.24
2018-05-31T18:55:32.935Z,101525.66
2018-05-31T18:58:36.910Z,101524.81
2018-05-31T19:01:40.313Z,101524.86
2018-05-31T19:04:43.627Z,101528.02
2018-05-31T19:07:47.767Z,101535.55
2018-05-31T19:10:51.102Z,101534.72
2018-05-31T19:13:58.445Z,101536.51
2018-05-31T19:17:01.770Z,101549.72
2018-05-31T19:20:05.109Z,101542.71
2018-05-31T19:23:09.195Z,101542.80
2018-05-31T19:26:12.569Z,101542.42
2018-05-31T19:29:16.025Z,101550.83
2018-05-31T19:32:20.252Z,101547.74
2018-05-31T19:35:29.889Z,101544.25
2018-05-31T19:38:34.001Z,101545.17
2018-05-31T19:41:38.094Z,101548.72
2018-05-31T19:44:41.436Z,101541.70
2018-05-31T19:47:45.271Z,101547.48
2018-05-31T19:50:48.614Z,101556.75
2018-05-31T19:53:53.289Z,101558.08
2018-05-31T19:56:56.659Z,101557.66
2018-05-31T20:00:05.472Z,101555.08
2018-05-31T20:03:15.303Z,101556.82
2018-05-31T20:06:18.599Z,101546.33
2018-05-31T20:09:21.996Z,101553.81
2018-05-31T20:12:25.338Z,101551.67
2018-05-31T20:15:28.670Z,101550.77
2018-05-31T20:18:32.025Z,101555.63
2018-05-31T20:21:35.341Z,101547.33
2018-05-31T20:24:38.726Z,101547.34
2018-05-31T20:27:42.086Z,101545.16
2018-05-31T20:30:46.198Z,101542.55
2018-05-31T20:33:50.565Z,101539.88
2018-05-31T20:36:53.881Z,101530.26
2018-05-31T20:39:57.303Z,101531.15
2018-05-31T20:43:00.646Z,101530.27
2018-05-31T20:46:04.111Z,101531.19
2018-05-31T20:49:08.194Z,101529.89
2018-05-31T20:52:11.536Z,101530.31
2018-05-31T20:55:14.873Z,101536.05
2018-05-31T20:58:18.233Z,101537.36
2018-05-31T21:01:21.540Z,101532.11
2018-05-31T21:04:25.163Z,101538.69
2018-05-31T21:07:28.499Z,101533.02
2018-05-31T21:10:32.603Z,101536.51
2018-05-31T21:13:35.928Z,101530.84
2018-05-31T21:16:39.274Z,101524.67
2018-05-31T21:19:42.601Z,101535.27
2018-05-31T21:22:46.754Z,101526.49
2018-05-31T21:25:50.910Z,101524.75
2018-05-31T21:28:54.297Z,101526.93
2018-05-31T21:31:57.667Z,101536.61
2018-05-31T21:35:01.041Z,101535.72
2018-05-31T21:38:04.360Z,101540.55
2018-05-31T21:41:07.729Z,101540.53
2018-05-31T21:44:11.818Z,101537.03
2018-05-31T21:47:15.244Z,101537.50
2018-05-31T21:50:18.548Z,101531.78
2018-05-31T21:53:21.985Z,101535.30
2018-05-31T21:56:25.293Z,101532.67
2018-05-31T21:59:28.674Z,101541.47
2018-05-31T22:02:31.982Z,101539.70
2018-05-31T22:05:35.339Z,101537.52
2018-05-31T22:08:38.668Z,101541.04
2018-05-31T22:11:42.031Z,101540.60
2018-05-31T22:14:45.435Z,101540.17
2018-05-31T22:17:48.850Z,101541.04
2018-05-31T22:20:52.414Z,101537.54
2018-05-31T22:23:55.897Z,101545.02
2018-05-31T22:26:59.233Z,101539.29
2018-05-31T22:30:02.557Z,101542.36
2018-05-31T22:33:05.889Z,101531.86
2018-05-31T22:36:10.020Z,101536.68
2018-05-31T22:39:13.425Z,101540.20
2018-05-31T22:42:16.735Z,101535.81
2018-05-31T22:45:20.156Z,101532.30
2018-05-31T22:48:23.557Z,101530.98
2018-05-31T22:51:26.954Z,101536.69
2018-05-31T22:54:30.353Z,101537.57
2018-05-31T22:57:33.690Z,101537.12
2018-05-31T23:00:37.883Z,101535.81
2018-05-31T23:03:41.189Z,101528.80
2018-05-31T23:06:45.353Z,101530.55
2018-05-31T23:09:48.775Z,101522.67
2018-05-31T23:12:52.105Z,101530.99
2018-05-31T23:15:56.210Z,101532.75
2018-05-31T23:18:59.521Z,101539.77
2018-05-31T23:22:03.685Z,101539.70
2018-05-31T23:25:07.029Z,101540.14
2018-05-31T23:28:11.122Z,101540.56
2018-05-31T23:31:14.462Z,101529.19
2018-05-31T23:34:18.344Z,101535.75
2018-05-31T23:37:22.426Z,101539.27
2018-05-31T23:40:25.749Z,101539.23
2018-05-31T23:43:29.109Z,101529.17
2018-05-31T23:46:32.511Z,101532.25
2018-05-31T23:49:35.909Z,101539.27
2018-05-31T23:52:39.304Z,101538.37
2018-05-31T23:55:42.629Z,101529.16
2018-05-31T23:58:46.004Z,101530.91
